createdAt,value
2018-04-08T00:05:20.449Z,3.39
2018-04-08T00:11:11.374Z,3.86
2018-04-08T00:17:02.236Z,3.65
2018-04-08T00:22:53.104Z,5.1
2018-04-08T00:28:43.977Z,5.08
2018-04-08T00:34:34.864Z,5.1
2018-04-08T00:40:25.749Z,4.97
2018-04-08T00:46:16.606Z,5.11
2018-04-08T00:52:07.495Z,3.99
2018-04-08T00:57:58.374Z,3.96
2018-04-08T01:03:49.265Z,3.51
2018-04-08T01:09:40.124Z,3.9
2018-04-08T01:15:31.022Z,3.47
2018-04-08T01:21:21.896Z,3.67
2018-04-08T01:27:12.758Z,3.92
2018-04-08T01:33:03.616Z,3.41
2018-04-08T01:38:54.502Z,4.2
2018-04-08T01:44:45.370Z,3.51
2018-04-08T01:50:36.253Z,4.64
2018-04-08T01:56:27.125Z,3.89
2018-04-08T02:02:17.987Z,3.55
2018-04-08T02:08:08.909Z,4
2018-04-08T02:13:59.777Z,3.35
2018-04-08T02:19:50.630Z,3.37
2018-04-08T02:25:41.495Z,3.47
2018-04-08T02:31:32.433Z,3.36
2018-04-08T02:37:23.242Z,3.33
2018-04-08T02:43:14.097Z,3.48
2018-04-08T02:49:04.978Z,3.57
2018-04-08T02:54:55.851Z,3.23
2018-04-08T03:00:46.721Z,2.99
2018-04-08T03:06:37.583Z,3.55
2018-04-08T03:12:28.455Z,3.46
2018-04-08T03:18:19.368Z,3.12
2018-04-08T03:24:10.231Z,3.27
2018-04-08T03:30:01.100Z,3.85
2018-04-08T03:35:51.949Z,3.62
2018-04-08T03:41:42.826Z,2.93
2018-04-08T03:47:33.714Z,4.34
2018-04-08T03:53:24.580Z,3.31
2018-04-08T03:59:15.448Z,3.33
2018-04-08T04:05:06.344Z,4.15
2018-04-08T04:10:57.179Z,3.6
2018-04-08T04:16:48.101Z,4.5
2018-04-08T04:22:38.912Z,3.15
2018-04-08T04:28:29.804Z,3.47
2018-04-08T04:34:20.670Z,3.62
2018-04-08T04:40:11.547Z,3.87
2018-04-08T04:46:02.381Z,3.87
2018-04-08T04:51:53.273Z,3.25
2018-04-08T04:57:44.123Z,3.49
2018-04-08T05:03:35.075Z,3.35
2018-04-08T05:09:25.895Z,4.04
2018-04-08T05:15:16.780Z,3.53
2018-04-08T05:21:07.613Z,3.38
2018-04-08T05:26:58.506Z,3.92
2018-04-08T05:32:49.391Z,3.51
2018-04-08T05:38:40.252Z,3.29
2018-04-08T05:44:31.096Z,3.64
2018-04-08T05:50:21.939Z,4.54
2018-04-08T05:56:12.834Z,4.05
2018-04-08T06:02:03.683Z,4.3
2018-04-08T06:07:54.545Z,4.24
2018-04-08T06:13:45.457Z,4.6
2018-04-08T06:19:36.312Z,4.44
2018-04-08T06:25:27.193Z,4.11
2018-04-08T06:31:18.064Z,4.31
2018-04-08T06:37:08.909Z,4.51
2018-04-08T06:42:59.787Z,4.16
2018-04-08T06:48:50.642Z,4.02
2018-04-08T06:54:41.545Z,5.34
2018-04-08T07:00:32.429Z,6.3
2018-04-08T07:06:23.311Z,5.7
2018-04-08T07:12:14.189Z,4.93
2018-04-08T07:18:05.033Z,5.32
2018-04-08T07:23:55.903Z,5.89
2018-04-08T07:29:46.742Z,6.96
2018-04-08T07:35:37.617Z,7.96
2018-04-08T07:41:28.486Z,7.03
2018-04-08T07:47:19.352Z,6.09
2018-04-08T07:53:10.225Z,5.49
2018-04-08T07:59:01.096Z,5.43
2018-04-08T08:04:51.969Z,6.19
2018-04-08T08:10:42.825Z,5.59
2018-04-08T08:16:33.699Z,6.22
2018-04-08T08:22:24.642Z,5.4
2018-04-08T08:28:15.445Z,5.44
2018-04-08T08:34:06.377Z,5.69
2018-04-08T08:39:57.165Z,5.21
2018-04-08T08:45:48.072Z,5.72
2018-04-08T08:51:38.913Z,5.76
2018-04-08T08:57:29.833Z,5.48
2018-04-08T09:03:20.699Z,4.66
2018-04-08T09:09:11.561Z,4.73
2018-04-08T09:15:02.467Z,3.94
2018-04-08T09:20:53.307Z,4.6
2018-04-08T09:26:44.209Z,4.2
2018-04-08T09:32:35.088Z,4.12
2018-04-08T09:38:25.912Z,4
2018-04-08T09:44:16.821Z,4.43
2018-04-08T09:50:07.679Z,3.95
2018-04-08T09:55:58.551Z,4.46
2018-04-08T10:01:49.493Z,3.85
2018-04-08T10:07:40.320Z,3.8
2018-04-08T10:13:31.218Z,3.41
2018-04-08T10:19:22.066Z,3.02
2018-04-08T10:25:12.952Z,3.6
2018-04-08T10:31:03.862Z,3.72
2018-04-08T10:36:54.735Z,3.35
2018-04-08T10:42:45.630Z,3.62
2018-04-08T10:48:36.494Z,3.32
2018-04-08T10:54:27.408Z,3.58
2018-04-08T11:00:18.309Z,3.05
2018-04-08T11:06:09.189Z,2.78
2018-04-08T11:12:00.091Z,3.01
2018-04-08T11:17:51.030Z,3.05
2018-04-08T11:23:41.901Z,3.16
2018-04-08T11:29:32.808Z,3.42
2018-04-08T11:35:23.715Z,3.13
2018-04-08T11:41:14.643Z,2.8
2018-04-08T11:47:05.555Z,2.97
2018-04-08T11:52:56.491Z,2.67
2018-04-08T11:58:47.441Z,2.81
2018-04-08T12:04:38.309Z,2.56
2018-04-08T12:10:29.233Z,2.34
2018-04-08T12:16:20.151Z,2.49
2018-04-08T12:22:11.080Z,2.76
2018-04-08T12:28:02.014Z,2.31
2018-04-08T12:33:52.932Z,2.12
2018-04-08T12:39:43.865Z,2.51
2018-04-08T12:45:34.784Z,2.03
2018-04-08T12:51:25.741Z,2.58
2018-04-08T12:57:16.667Z,2.21
2018-04-08T13:03:07.615Z,2.09
2018-04-08T13:08:58.564Z,2.2
2018-04-08T13:14:49.524Z,1.91
2018-04-08T13:20:40.426Z,2.2
2018-04-08T13:26:31.392Z,2.06
2018-04-08T13:32:22.373Z,2.23
2018-04-08T13:38:13.250Z,1.96
2018-04-08T13:44:04.204Z,2.13
2018-04-08T13:49:55.122Z,1.94
2018-04-08T13:55:46.095Z,1.5
2018-04-08T14:01:37.028Z,1.98
2018-04-08T14:07:27.959Z,1.76
2018-04-08T14:13:18.883Z,1.61
2018-04-08T14:19:09.822Z,2.1
2018-04-08T14:25:00.773Z,1.99
2018-04-08T14:30:51.706Z,1.81
2018-04-08T14:36:42.634Z,1.91
2018-04-08T14:42:33.589Z,1.91
2018-04-08T14:48:24.505Z,1.86
2018-04-08T14:54:15.451Z,1.86
2018-04-08T15:00:06.382Z,1.93
2018-04-08T15:05:57.309Z,1.89
2018-04-08T15:11:48.264Z,2.01
2018-04-08T15:17:39.130Z,1.57
2018-04-08T15:23:30.074Z,1.82
2018-04-08T15:29:21.032Z,1.73
2018-04-08T15:35:11.931Z,1.79
2018-04-08T15:41:02.884Z,1.6
2018-04-08T15:46:53.783Z,1.74
2018-04-08T15:52:44.714Z,1.8
2018-04-08T15:58:35.643Z,1.7
2018-04-08T16:04:26.545Z,1.63
2018-04-08T16:10:17.492Z,2.14
2018-04-08T16:16:08.407Z,1.86
2018-04-08T16:21:59.305Z,1.84
2018-04-08T16:27:50.253Z,1.94
2018-04-08T16:33:41.128Z,1.94
2018-04-08T16:39:32.056Z,1.83
2018-04-08T16:45:22.994Z,1.93
2018-04-08T16:51:13.910Z,1.81
2018-04-08T16:57:04.798Z,1.73
2018-04-08T17:02:55.718Z,1.83
2018-04-08T17:08:46.660Z,1.49
2018-04-08T17:14:37.596Z,1.78
2018-04-08T17:20:28.434Z,1.91
2018-04-08T17:26:19.347Z,2.1
2018-04-08T17:32:10.271Z,2.15
2018-04-08T17:38:01.204Z,1.96
2018-04-08T17:43:52.097Z,1.98
2018-04-08T17:49:42.994Z,2.12
2018-04-08T17:55:33.951Z,2.02
2018-04-08T18:01:24.784Z,2.33
2018-04-08T18:07:15.702Z,2.11
2018-04-08T18:13:06.601Z,2.2
2018-04-08T18:18:57.507Z,1.9
2018-04-08T18:24:48.410Z,2.21
2018-04-08T18:30:39.306Z,2.37
2018-04-08T18:36:30.197Z,2.35
2018-04-08T18:42:21.139Z,1.91
2018-04-08T18:48:12.023Z,2.37
2018-04-08T18:54:02.910Z,2.09
2018-04-08T18:59:53.831Z,2.34
2018-04-08T19:05:44.718Z,2.95
2018-04-08T19:11:35.605Z,2.4
2018-04-08T19:17:26.529Z,2.32
2018-04-08T19:23:17.414Z,2.81
2018-04-08T19:29:08.365Z,2.37
2018-04-08T19:34:59.248Z,2.78
2018-04-08T19:40:50.101Z,3.44
2018-04-08T19:46:41.005Z,3.76
2018-04-08T19:52:31.923Z,3.38
2018-04-08T19:58:22.889Z,3.44
2018-04-08T20:04:13.757Z,3.3
2018-04-08T20:10:04.611Z,3.58
2018-04-08T20:15:55.491Z,4.16
2018-04-08T20:21:46.434Z,3.38
2018-04-08T20:27:37.299Z,4.37
2018-04-08T20:33:28.197Z,3.81
2018-04-08T20:39:19.105Z,4.47
2018-04-08T20:45:09.993Z,4.13
2018-04-08T20:51:00.893Z,4.55
2018-04-08T20:56:51.762Z,4.11
2018-04-08T21:02:42.642Z,4.32
2018-04-08T21:08:33.574Z,4.84
2018-04-08T21:14:24.406Z,4.16
2018-04-08T21:20:15.323Z,4.64
2018-04-08T21:26:06.193Z,3.87
2018-04-08T21:31:57.123Z,4.27
2018-04-08T21:37:47.989Z,4
2018-04-08T21:43:38.878Z,4.4
2018-04-08T21:49:29.757Z,4.18
2018-04-08T21:55:20.689Z,4.48
2018-04-08T22:01:11.509Z,3.97
2018-04-08T22:07:02.417Z,4.37
2018-04-08T22:12:53.348Z,4.41
2018-04-08T22:18:44.198Z,4.74
2018-04-08T22:24:35.062Z,3.69
2018-04-08T22:30:25.968Z,4.19
2018-04-08T22:36:16.860Z,3.98
2018-04-08T22:42:07.737Z,4.12
2018-04-08T22:47:58.631Z,4.25
2018-04-08T22:53:49.494Z,3.26
2018-04-08T22:59:40.407Z,3.73
2018-04-08T23:05:31.294Z,3.34
2018-04-08T23:11:22.193Z,3.24
2018-04-08T23:17:13.067Z,3.05
2018-04-08T23:23:03.954Z,2.92
2018-04-08T23:28:54.824Z,2.69
2018-04-08T23:34:45.716Z,3.35
2018-04-08T23:40:36.599Z,3.37
2018-04-08T23:46:27.495Z,3.16
2018-04-08T23:52:18.376Z,3.44
2018-04-08T23:58:09.267Z,3.27
